createdAt,value
2017-09-18T00:02:37.748Z,0
2017-09-18T00:12:37.796Z,0
2017-09-18T00:22:37.840Z,0
2017-09-18T00:32:37.761Z,0
2017-09-18T00:42:37.873Z,0
2017-09-18T00:52:37.765Z,0
2017-09-18T01:02:37.791Z,0
2017-09-18T01:12:37.811Z,0
2017-09-18T01:22:37.810Z,0
2017-09-18T01:32:37.900Z,0
2017-09-18T01:42:37.894Z,0
2017-09-18T01:52:37.831Z,0
2017-09-18T02:02:37.850Z,0
2017-09-18T02:12:37.856Z,0
2017-09-18T02:22:37.882Z,0
2017-09-18T02:32:37.939Z,0
2017-09-18T02:42:37.863Z,0
2017-09-18T02:52:37.976Z,0
2017-09-18T03:02:37.890Z,0
2017-09-18T03:12:37.981Z,0
2017-09-18T03:22:37.930Z,0
2017-09-18T03:32:37.913Z,0
2017-09-18T03:42:37.962Z,0
2017-09-18T03:52:38.106Z,0
2017-09-18T04:02:37.939Z,0
2017-09-18T04:12:38.066Z,0
2017-09-18T04:22:37.983Z,0
2017-09-18T04:32:37.957Z,0
2017-09-18T04:42:38.060Z,0
2017-09-18T04:52:37.972Z,4
2017-09-18T05:02:38.064Z,8
2017-09-18T05:12:38.015Z,52
2017-09-18T05:22:38.074Z,128
2017-09-18T05:32:38.011Z,244
2017-09-18T05:42:38.105Z,480
2017-09-18T05:52:38.052Z,848
2017-09-18T06:02:38.153Z,1332
2017-09-18T06:12:38.093Z,2316
2017-09-18T06:22:38.068Z,3248
2017-09-18T06:32:38.077Z,1456
2017-09-18T06:42:38.113Z,1444
2017-09-18T06:52:38.149Z,1936
2017-09-18T07:02:38.261Z,8144
2017-09-18T07:12:38.112Z,6324
2017-09-18T07:22:38.149Z,4992
2017-09-18T07:32:38.189Z,6564
2017-09-18T07:42:38.112Z,2660
2017-09-18T07:52:38.956Z,8252
2017-09-18T08:02:38.183Z,9380
2017-09-18T08:12:38.224Z,4940
2017-09-18T08:22:38.889Z,3172
2017-09-18T08:32:39.975Z,2500
2017-09-18T08:42:38.183Z,3032
2017-09-18T08:52:38.315Z,2772
2017-09-18T09:02:38.252Z,3212
2017-09-18T09:12:38.212Z,4140
2017-09-18T09:22:38.705Z,7384
2017-09-18T09:32:38.697Z,10116
2017-09-18T09:42:38.331Z,10972
2017-09-18T09:52:38.373Z,8448
2017-09-18T10:02:38.291Z,12504
2017-09-18T10:12:38.410Z,17824
2017-09-18T10:22:38.359Z,13352
2017-09-18T10:32:38.367Z,8608
2017-09-18T10:42:38.297Z,7124
2017-09-18T10:52:38.525Z,6800
2017-09-18T11:02:38.909Z,6748
2017-09-18T11:12:38.444Z,14176
2017-09-18T11:22:38.364Z,14980
2017-09-18T11:32:38.570Z,12300
2017-09-18T11:42:41.458Z,8940
2017-09-18T11:52:44.117Z,17380
2017-09-18T12:02:38.420Z,8556
2017-09-18T12:12:38.430Z,7692
2017-09-18T12:22:38.477Z,6280
2017-09-18T12:32:38.386Z,11552
2017-09-18T12:42:38.410Z,9168
2017-09-18T12:52:38.420Z,4804
2017-09-18T13:02:38.447Z,6408
2017-09-18T13:12:38.421Z,4436
2017-09-18T13:22:38.407Z,3612
2017-09-18T13:32:38.422Z,3904
2017-09-18T13:42:38.526Z,7584
2017-09-18T13:52:38.442Z,8216
2017-09-18T14:02:38.458Z,8520
2017-09-18T14:12:38.493Z,6620
2017-09-18T14:22:38.503Z,4756
2017-09-18T14:32:38.353Z,5660
2017-09-18T14:42:38.395Z,2904
2017-09-18T14:52:38.452Z,3136
2017-09-18T15:02:38.472Z,4796
2017-09-18T15:12:38.393Z,4792
2017-09-18T15:22:38.461Z,832
2017-09-18T15:32:38.448Z,1252
2017-09-18T15:42:38.397Z,1776
2017-09-18T15:52:38.413Z,1228
2017-09-18T16:02:39.445Z,1792
2017-09-18T16:12:38.509Z,1576
2017-09-18T16:22:38.431Z,1260
2017-09-18T16:32:38.515Z,1148
2017-09-18T16:42:38.397Z,1028
2017-09-18T16:52:38.422Z,880
2017-09-18T17:02:38.384Z,376
2017-09-18T17:12:38.454Z,392
2017-09-18T17:22:38.458Z,204
2017-09-18T17:32:38.458Z,116
2017-09-18T17:42:38.464Z,48
2017-09-18T17:52:38.380Z,12
2017-09-18T18:02:38.369Z,4
2017-09-18T18:12:38.400Z,0
2017-09-18T18:22:38.387Z,0
2017-09-18T18:32:38.445Z,0
2017-09-18T18:42:38.426Z,0
2017-09-18T18:52:38.440Z,0
2017-09-18T19:02:38.441Z,4
2017-09-18T19:12:38.372Z,0
2017-09-18T19:22:38.364Z,0
2017-09-18T19:32:38.399Z,0
2017-09-18T19:42:38.404Z,0
2017-09-18T19:52:38.370Z,0
2017-09-18T20:02:38.551Z,0
2017-09-18T20:12:38.409Z,0
2017-09-18T20:22:38.391Z,0
2017-09-18T20:32:38.425Z,0
2017-09-18T20:42:38.416Z,0
2017-09-18T20:52:38.512Z,0
2017-09-18T21:02:38.484Z,0
2017-09-18T21:12:38.464Z,4
2017-09-18T21:22:38.531Z,0
2017-09-18T21:32:38.744Z,0
2017-09-18T21:42:38.646Z,0
2017-09-18T21:52:38.505Z,0
2017-09-18T22:02:38.428Z,0
2017-09-18T22:12:38.489Z,0
2017-09-18T22:22:38.365Z,0
2017-09-18T22:32:38.553Z,0
2017-09-18T22:42:38.367Z,0
2017-09-18T22:52:38.429Z,0
2017-09-18T23:02:38.463Z,0
2017-09-18T23:12:38.360Z,0
2017-09-18T23:22:38.349Z,0
2017-09-18T23:32:38.452Z,0
2017-09-18T23:42:38.412Z,0
2017-09-18T23:52:38.530Z,0
